createdAt,value
2022-11-27T00:01:25.696Z,112.35
2022-11-27T00:06:23.232Z,115.65
2022-11-27T00:11:20.683Z,111.35
2022-11-27T00:16:17.618Z,110.35
2022-11-27T00:21:15.133Z,108.10
2022-11-27T00:26:11.379Z,112.75
2022-11-27T00:31:12.194Z,115.63
2022-11-27T00:36:08.698Z,114.63
2022-11-27T00:41:06.075Z,108.70
2022-11-27T00:46:02.287Z,114.18
2022-11-27T00:50:59.669Z,109.57
2022-11-27T00:55:56.313Z,115.47
2022-11-27T01:00:59.965Z,116.47
2022-11-27T01:05:56.209Z,112.60
2022-11-27T01:10:56.867Z,110.93
2022-11-27T01:15:59.903Z,112.38
2022-11-27T01:20:56.674Z,107.55
2022-11-27T01:25:53.737Z,113.55
2022-11-27T01:30:50.075Z,114.32
2022-11-27T01:36:12.588Z,114.65
2022-11-27T01:41:19.457Z,115.55
2022-11-27T01:46:25.203Z,108.95
2022-11-27T01:51:22.633Z,113.72
2022-11-27T01:56:19.644Z,113.20
2022-11-27T02:01:16.004Z,108.32
2022-11-27T02:06:12.798Z,111.60
2022-11-27T02:11:27.814Z,118.10
2022-11-27T02:16:24.189Z,116.93
2022-11-27T02:21:33.417Z,119.88
2022-11-27T02:26:56.204Z,119.95
2022-11-27T02:31:58.211Z,121.87
2022-11-27T02:37:03.357Z,114.85
2022-11-27T02:42:02.131Z,116.97
2022-11-27T02:46:58.556Z,114.93
2022-11-27T02:51:57.121Z,113.90
2022-11-27T02:56:54.457Z,114.55
2022-11-27T03:01:53.420Z,118.63
2022-11-27T03:06:52.369Z,117.13
2022-11-27T03:11:48.780Z,115.88
2022-11-27T03:17:05.310Z,112.00
2022-11-27T03:22:02.594Z,114.85
2022-11-27T03:26:58.977Z,113.68
2022-11-27T03:31:56.021Z,111.93
2022-11-27T03:36:52.256Z,113.65
2022-11-27T03:42:05.606Z,110.13
2022-11-27T03:47:25.667Z,109.72
2022-11-27T03:52:35.618Z,111.38
2022-11-27T03:57:37.393Z,112.82
2022-11-27T04:02:41.942Z,110.37
2022-11-27T04:07:38.375Z,110.32
2022-11-27T04:12:34.645Z,111.20
2022-11-27T04:17:30.864Z,115.80
2022-11-27T04:22:27.049Z,111.38
2022-11-27T04:27:23.286Z,112.32
2022-11-27T04:32:19.598Z,112.95
2022-11-27T04:37:15.863Z,112.93
2022-11-27T04:42:12.172Z,111.22
2022-11-27T04:47:09.013Z,117.40
2022-11-27T04:52:05.249Z,113.85
2022-11-27T04:57:01.482Z,116.88
2022-11-27T05:01:57.857Z,122.78
2022-11-27T05:06:54.037Z,120.35
2022-11-27T05:11:50.340Z,118.85
2022-11-27T05:16:47.985Z,121.55
2022-11-27T05:21:44.421Z,119.63
2022-11-27T05:26:41.057Z,121.18
2022-11-27T05:31:37.738Z,124.28
2022-11-27T05:36:35.082Z,120.68
2022-11-27T05:41:31.338Z,123.53
2022-11-27T05:46:27.542Z,117.55
2022-11-27T05:51:24.717Z,119.90
2022-11-27T05:56:20.978Z,118.20
2022-11-27T06:01:17.849Z,115.03
2022-11-27T06:06:15.613Z,111.15
2022-11-27T06:11:19.394Z,108.90
2022-11-27T06:16:20.198Z,104.00
2022-11-27T06:21:16.968Z,101.75
2022-11-27T06:26:14.856Z,104.13
2022-11-27T06:31:17.508Z,97.10
2022-11-27T06:36:14.563Z,98.28
2022-11-27T06:41:12.425Z,104.65
2022-11-27T06:46:11.292Z,103.28
2022-11-27T06:51:08.438Z,101.90
2022-11-27T06:56:09.000Z,99.65
2022-11-27T07:01:09.903Z,102.45
2022-11-27T07:06:07.345Z,104.43
2022-11-27T07:11:04.872Z,100.93
2022-11-27T07:16:02.055Z,100.63
2022-11-27T07:20:58.377Z,99.05
2022-11-27T07:25:54.602Z,100.47
2022-11-27T07:30:54.797Z,100.45
2022-11-27T07:35:57.388Z,104.95
2022-11-27T07:45:50.438Z,103.13
2022-11-27T07:50:46.748Z,102.32
2022-11-27T07:55:43.058Z,109.30
2022-11-27T08:00:39.293Z,106.50
2022-11-27T08:05:36.140Z,102.93
2022-11-27T08:10:36.204Z,105.43
2022-11-27T08:15:32.646Z,107.88
2022-11-27T08:20:29.052Z,110.05
2022-11-27T08:25:25.408Z,113.63
2022-11-27T08:30:23.920Z,110.80
2022-11-27T08:35:20.334Z,106.53
2022-11-27T08:40:16.838Z,112.97
2022-11-27T08:45:13.161Z,117.95
2022-11-27T08:50:09.690Z,112.35
2022-11-27T08:55:06.215Z,113.43
2022-11-27T09:00:02.583Z,108.22
2022-11-27T09:04:58.811Z,106.10
2022-11-27T09:09:55.052Z,103.90
2022-11-27T09:14:51.405Z,101.40
2022-11-27T09:19:47.757Z,95.80
2022-11-27T09:24:44.441Z,102.43
2022-11-27T09:29:40.635Z,94.40
2022-11-27T09:34:37.693Z,89.40
2022-11-27T09:39:34.218Z,77.75
2022-11-27T09:44:45.436Z,80.70
2022-11-27T09:49:44.047Z,76.07
2022-11-27T09:54:52.146Z,82.13
2022-11-27T09:59:50.509Z,81.05
2022-11-27T10:05:12.491Z,70.35
2022-11-27T10:10:18.684Z,64.43
2022-11-27T10:15:15.822Z,61.85
2022-11-27T10:20:12.961Z,56.58
2022-11-27T10:25:09.329Z,55.15
2022-11-27T10:30:15.211Z,54.17
2022-11-27T10:35:14.371Z,54.85
2022-11-27T10:40:11.697Z,53.90
2022-11-27T10:45:17.316Z,49.35
2022-11-27T10:50:14.970Z,48.60
2022-11-27T10:55:15.951Z,45.25
2022-11-27T11:00:14.632Z,43.42
2022-11-27T11:05:32.847Z,41.03
2022-11-27T11:10:27.114Z,40.53
2022-11-27T11:15:23.405Z,37.97
2022-11-27T11:20:23.480Z,36.97
2022-11-27T11:25:20.884Z,37.05
2022-11-27T11:30:21.493Z,38.03
2022-11-27T11:35:36.749Z,38.42
2022-11-27T11:40:34.783Z,38.83
2022-11-27T11:45:33.187Z,37.83
2022-11-27T11:50:37.190Z,39.28
2022-11-27T11:55:52.366Z,41.03
2022-11-27T12:01:26.075Z,37.75
2022-11-27T12:06:05.984Z,38.72
2022-11-27T12:11:08.660Z,39.03
2022-11-27T12:21:15.892Z,38.28
2022-11-27T12:26:30.279Z,36.90
2022-11-27T12:31:45.096Z,36.97
2022-11-27T12:36:54.773Z,35.33
2022-11-27T12:41:59.769Z,33.42
2022-11-27T12:46:59.392Z,34.70
2022-11-27T12:52:02.694Z,36.28
2022-11-27T12:57:02.147Z,34.70
2022-11-27T13:02:17.286Z,36.33
2022-11-27T13:07:38.797Z,37.55
2022-11-27T13:12:42.973Z,37.10
2022-11-27T13:17:41.218Z,39.08
2022-11-27T13:22:37.573Z,38.83
2022-11-27T13:27:35.257Z,36.85
2022-11-27T13:32:41.212Z,39.33
2022-11-27T13:37:40.872Z,39.47
2022-11-27T13:42:43.060Z,42.90
2022-11-27T13:47:41.489Z,42.92
2022-11-27T13:52:38.239Z,41.95
2022-11-27T13:57:34.634Z,41.72
2022-11-27T14:02:40.306Z,42.80
2022-11-27T14:07:41.655Z,44.60
2022-11-27T14:12:38.395Z,43.70
2022-11-27T14:17:36.875Z,42.78
2022-11-27T14:22:44.223Z,43.80
2022-11-27T14:27:57.059Z,43.75
2022-11-27T14:32:53.515Z,42.58
2022-11-27T14:37:49.880Z,43.33
2022-11-27T14:42:46.207Z,44.28
2022-11-27T14:47:46.785Z,44.20
2022-11-27T14:52:43.875Z,45.88
2022-11-27T14:57:40.411Z,45.63
2022-11-27T15:02:36.806Z,47.58
2022-11-27T15:07:41.867Z,49.45
2022-11-27T15:12:45.216Z,51.17
2022-11-27T15:17:44.439Z,51.42
2022-11-27T15:22:48.304Z,50.90
2022-11-27T15:27:45.822Z,52.65
2022-11-27T15:32:50.933Z,51.10
2022-11-27T15:37:47.330Z,52.35
2022-11-27T15:42:43.822Z,54.75
2022-11-27T15:47:41.456Z,55.25
2022-11-27T15:52:37.719Z,58.72
2022-11-27T15:57:33.945Z,62.67
2022-11-27T16:02:31.035Z,56.47
2022-11-27T16:07:27.537Z,62.20
2022-11-27T16:12:23.805Z,60.80
2022-11-27T16:17:20.047Z,63.80
2022-11-27T16:22:16.305Z,62.92
2022-11-27T16:27:12.504Z,60.63
2022-11-27T16:32:08.929Z,61.05
2022-11-27T16:37:05.183Z,59.83
2022-11-27T16:42:01.536Z,62.00
2022-11-27T16:46:57.837Z,57.95
2022-11-27T16:51:54.137Z,54.90
2022-11-27T16:56:50.468Z,54.83
2022-11-27T17:01:46.973Z,52.38
2022-11-27T17:06:43.304Z,51.97
2022-11-27T17:11:43.435Z,49.75
2022-11-27T17:16:41.365Z,50.35
2022-11-27T17:21:37.710Z,48.15
2022-11-27T17:26:35.222Z,48.03
2022-11-27T17:31:36.815Z,50.85
2022-11-27T17:36:36.891Z,48.67
2022-11-27T17:41:35.136Z,48.03
2022-11-27T17:46:32.403Z,48.30
2022-11-27T17:51:30.035Z,46.72
2022-11-27T17:56:26.747Z,43.97
2022-11-27T18:01:24.114Z,45.00
2022-11-27T18:06:20.509Z,45.10
2022-11-27T18:11:18.068Z,42.25
2022-11-27T18:16:16.389Z,40.80
2022-11-27T18:21:18.041Z,41.10
2022-11-27T18:26:16.497Z,43.42
2022-11-27T18:31:14.417Z,39.92
2022-11-27T18:36:11.380Z,42.28
2022-11-27T18:41:13.472Z,42.13
2022-11-27T18:46:10.794Z,42.05
2022-11-27T18:51:07.179Z,42.10
2022-11-27T18:56:04.628Z,46.25
2022-11-27T19:01:01.855Z,42.33
2022-11-27T19:05:59.787Z,46.25
2022-11-27T19:11:00.084Z,49.50
2022-11-27T19:15:56.542Z,49.08
2022-11-27T19:20:54.880Z,46.58
2022-11-27T19:25:51.113Z,47.70
2022-11-27T19:30:47.345Z,46.63
2022-11-27T19:35:43.563Z,48.15
2022-11-27T19:40:41.430Z,45.20
2022-11-27T19:45:37.838Z,46.33
2022-11-27T19:50:34.120Z,47.65
2022-11-27T19:55:31.009Z,47.30
2022-11-27T20:00:27.300Z,46.63
2022-11-27T20:05:23.550Z,43.88
2022-11-27T20:10:19.873Z,46.47
2022-11-27T20:15:16.838Z,42.90
2022-11-27T20:20:13.390Z,42.78
2022-11-27T20:25:19.377Z,42.90
2022-11-27T20:30:16.339Z,41.90
2022-11-27T20:35:12.554Z,45.70
2022-11-27T20:40:09.006Z,44.97
2022-11-27T20:45:05.476Z,44.55
2022-11-27T20:50:02.894Z,44.13
2022-11-27T20:54:59.170Z,44.85
2022-11-27T20:59:56.081Z,43.65
2022-11-27T21:04:52.330Z,47.50
2022-11-27T21:09:48.558Z,44.90
2022-11-27T21:14:44.833Z,45.30
2022-11-27T21:19:41.314Z,43.42
2022-11-27T21:24:37.753Z,44.15
2022-11-27T21:29:34.008Z,44.53
2022-11-27T21:34:30.358Z,42.97
2022-11-27T21:39:26.712Z,41.88
2022-11-27T21:44:23.580Z,42.35
2022-11-27T21:49:20.305Z,43.63
2022-11-27T21:54:17.548Z,43.17
2022-11-27T21:59:14.150Z,42.65
2022-11-27T22:04:10.501Z,42.53
2022-11-27T22:09:11.849Z,42.72
2022-11-27T22:14:11.517Z,41.97
2022-11-27T22:19:07.933Z,42.30
2022-11-27T22:24:04.384Z,45.38
2022-11-27T22:29:00.679Z,42.50
2022-11-27T22:33:57.301Z,43.55
2022-11-27T22:38:54.663Z,46.42
2022-11-27T22:43:51.337Z,44.03
2022-11-27T22:48:47.874Z,46.30
2022-11-27T22:53:44.081Z,44.58
2022-11-27T22:58:41.933Z,45.80
2022-11-27T23:03:40.141Z,40.22
2022-11-27T23:08:36.634Z,41.85
2022-11-27T23:13:32.895Z,40.30
2022-11-27T23:18:29.089Z,42.72
2022-11-27T23:23:25.412Z,42.55
2022-11-27T23:28:21.689Z,41.60
2022-11-27T23:33:17.937Z,43.72
2022-11-27T23:38:14.178Z,44.70
2022-11-27T23:43:10.428Z,46.75
2022-11-27T23:48:06.675Z,44.90
2022-11-27T23:53:03.044Z,44.53
2022-11-27T23:57:59.408Z,41.50
